createdAt,value
2019-05-15T00:00:34.449Z,4.72
2019-05-15T00:03:01.963Z,5.00
2019-05-15T00:05:29.641Z,4.50
2019-05-15T00:07:59.259Z,4.50
2019-05-15T00:10:28.791Z,4.78
2019-05-15T00:12:58.040Z,5.08
2019-05-15T00:15:27.802Z,4.95
2019-05-15T00:17:55.097Z,4.60
2019-05-15T00:20:22.799Z,4.03
2019-05-15T00:22:50.565Z,4.65
2019-05-15T00:25:18.871Z,4.40
2019-05-15T00:27:48.943Z,4.30
2019-05-15T00:30:18.288Z,4.15
2019-05-15T00:32:48.675Z,4.62
2019-05-15T00:35:18.247Z,4.60
2019-05-15T00:37:45.895Z,5.08
2019-05-15T00:40:13.559Z,5.55
2019-05-15T00:42:41.137Z,4.85
2019-05-15T00:45:09.501Z,4.85
2019-05-15T00:47:39.794Z,4.95
2019-05-15T00:50:09.023Z,4.62
2019-05-15T00:52:39.149Z,4.90
2019-05-15T00:55:08.642Z,5.10
2019-05-15T00:57:39.094Z,4.92
2019-05-15T01:00:08.202Z,4.70
2019-05-15T01:02:35.983Z,5.60
2019-05-15T01:05:05.142Z,5.12
2019-05-15T01:07:32.761Z,5.12
2019-05-15T01:10:00.478Z,5.33
2019-05-15T01:12:29.142Z,5.60
2019-05-15T01:14:58.307Z,5.78
2019-05-15T01:17:26.127Z,5.97
2019-05-15T01:19:53.703Z,5.35
2019-05-15T01:22:21.302Z,5.37
2019-05-15T01:24:48.863Z,5.80
2019-05-15T01:27:18.436Z,6.08
2019-05-15T01:29:46.041Z,5.70
2019-05-15T01:32:13.604Z,6.17
2019-05-15T01:34:41.071Z,5.58
2019-05-15T01:37:08.939Z,6.03
2019-05-15T01:39:38.527Z,6.28
2019-05-15T01:42:08.212Z,6.33
2019-05-15T01:44:35.617Z,6.65
2019-05-15T01:47:03.303Z,6.45
2019-05-15T01:49:30.981Z,6.43
2019-05-15T01:51:58.700Z,6.40
2019-05-15T01:54:28.680Z,7.17
2019-05-15T01:56:55.831Z,6.75
2019-05-15T01:59:23.425Z,6.75
2019-05-15T02:01:51.233Z,6.65
2019-05-15T02:04:20.163Z,6.30
2019-05-15T02:06:48.286Z,6.10
2019-05-15T02:09:18.570Z,6.60
2019-05-15T02:11:48.762Z,6.65
2019-05-15T02:14:15.853Z,6.50
2019-05-15T02:16:43.470Z,6.37
2019-05-15T02:19:11.142Z,6.03
2019-05-15T02:21:38.945Z,6.08
2019-05-15T02:24:07.959Z,6.53
2019-05-15T02:26:38.675Z,6.62
2019-05-15T02:29:07.640Z,7.03
2019-05-15T02:31:35.142Z,6.60
2019-05-15T02:34:03.427Z,6.40
2019-05-15T02:36:31.091Z,6.97
2019-05-15T02:38:59.677Z,6.53
2019-05-15T02:41:29.888Z,6.75
2019-05-15T02:43:59.189Z,6.97
2019-05-15T02:46:29.805Z,6.37
2019-05-15T02:48:59.035Z,6.47
2019-05-15T02:51:26.173Z,6.28
2019-05-15T02:53:53.653Z,6.25
2019-05-15T02:56:21.145Z,6.62
2019-05-15T02:58:49.246Z,6.12
2019-05-15T03:01:18.946Z,5.97
2019-05-15T03:03:49.861Z,6.17
2019-05-15T03:06:19.047Z,6.20
2019-05-15T03:08:49.229Z,6.72
2019-05-15T03:11:18.956Z,6.08
2019-05-15T03:13:49.970Z,6.12
2019-05-15T03:16:19.075Z,5.70
2019-05-15T03:18:45.135Z,6.05
2019-05-15T03:21:12.617Z,5.72
2019-05-15T03:23:40.865Z,5.40
2019-05-15T03:26:09.113Z,5.92
2019-05-15T03:28:39.125Z,5.90
2019-05-15T03:31:26.452Z,5.72
2019-05-15T03:33:43.919Z,5.97
2019-05-15T03:36:12.452Z,6.22
2019-05-15T03:38:39.111Z,5.55
2019-05-15T03:41:05.129Z,5.90
2019-05-15T03:43:32.608Z,6.25
2019-05-15T03:46:01.551Z,6.03
2019-05-15T03:48:29.584Z,6.22
2019-05-15T03:50:59.748Z,5.30
2019-05-15T03:53:29.696Z,5.50
2019-05-15T03:55:58.980Z,4.70
2019-05-15T03:58:28.470Z,4.90
2019-05-15T04:00:55.222Z,5.03
2019-05-15T04:03:23.461Z,5.17
2019-05-15T04:05:52.787Z,5.53
2019-05-15T04:08:20.698Z,4.78
2019-05-15T04:10:48.929Z,4.50
2019-05-15T04:13:19.635Z,5.37
2019-05-15T04:15:46.172Z,4.78
2019-05-15T04:18:14.888Z,5.08
2019-05-15T04:20:42.340Z,4.70
2019-05-15T04:23:11.032Z,5.00
2019-05-15T04:25:40.082Z,4.42
2019-05-15T04:28:09.636Z,4.78
2019-05-15T04:30:39.302Z,4.25
2019-05-15T04:33:09.396Z,4.55
2019-05-15T04:35:40.285Z,4.55
2019-05-15T04:38:09.325Z,4.67
2019-05-15T04:40:39.813Z,4.20
2019-05-15T04:43:39.633Z,4.33
2019-05-15T04:46:02.982Z,4.85
2019-05-15T04:48:30.468Z,4.28
2019-05-15T04:50:58.904Z,4.37
2019-05-15T04:53:32.737Z,4.12
2019-05-15T04:55:59.745Z,4.30
2019-05-15T04:58:29.624Z,4.00
2019-05-15T05:00:59.938Z,3.75
2019-05-15T05:03:29.292Z,4.15
2019-05-15T05:05:58.959Z,4.10
2019-05-15T05:08:28.698Z,3.98
2019-05-15T05:10:55.068Z,4.53
2019-05-15T05:13:22.716Z,4.17
2019-05-15T05:15:50.747Z,4.05
2019-05-15T05:18:19.764Z,3.85
2019-05-15T05:20:48.495Z,4.20
2019-05-15T05:23:18.892Z,4.12
2019-05-15T05:25:48.829Z,3.90
2019-05-15T05:28:17.989Z,3.90
2019-05-15T05:30:48.279Z,5.72
2019-05-15T05:33:17.991Z,4.12
2019-05-15T05:35:48.659Z,4.45
2019-05-15T05:38:18.731Z,4.35
2019-05-15T05:40:45.947Z,4.33
2019-05-15T05:43:13.735Z,3.72
2019-05-15T05:45:41.249Z,3.98
2019-05-15T05:48:08.896Z,4.22
2019-05-15T05:50:38.632Z,4.05
2019-05-15T05:53:08.780Z,4.12
2019-05-15T05:55:38.465Z,3.85
2019-05-15T05:58:08.031Z,4.25
2019-05-15T06:00:43.475Z,4.05
2019-05-15T06:03:11.028Z,3.52
2019-05-15T06:05:38.984Z,4.35
2019-05-15T06:08:08.117Z,4.42
2019-05-15T06:10:38.374Z,3.83
2019-05-15T06:13:08.500Z,3.98
2019-05-15T06:15:34.933Z,4.10
2019-05-15T06:18:03.237Z,4.00
2019-05-15T06:20:30.895Z,4.45
2019-05-15T06:22:59.652Z,4.55
2019-05-15T06:25:30.510Z,3.75
2019-05-15T06:27:58.345Z,3.58
2019-05-15T06:30:30.599Z,3.70
2019-05-15T06:33:08.314Z,3.95
2019-05-15T06:35:30.913Z,4.17
2019-05-15T06:37:55.587Z,3.90
2019-05-15T06:40:23.162Z,4.08
2019-05-15T06:42:51.959Z,4.47
2019-05-15T06:45:19.845Z,4.47
2019-05-15T06:47:48.256Z,4.37
2019-05-15T06:50:30.958Z,3.95
2019-05-15T06:52:58.771Z,4.15
2019-05-15T06:55:28.799Z,4.15
2019-05-15T06:57:58.414Z,4.30
2019-05-15T07:00:28.227Z,4.58
2019-05-15T07:02:58.200Z,4.78
2019-05-15T07:05:25.342Z,5.30
2019-05-15T07:07:53.118Z,4.20
2019-05-15T07:10:21.025Z,4.53
2019-05-15T07:12:51.452Z,4.00
2019-05-15T07:15:18.370Z,4.33
2019-05-15T07:17:48.245Z,4.47
2019-05-15T07:20:15.776Z,4.45
2019-05-15T07:22:43.255Z,4.87
2019-05-15T07:25:10.927Z,5.00
2019-05-15T07:27:39.218Z,4.12
2019-05-15T07:30:12.016Z,3.75
2019-05-15T07:32:39.709Z,4.17
2019-05-15T07:35:08.716Z,4.53
2019-05-15T07:37:38.627Z,4.92
2019-05-15T07:40:08.365Z,5.20
2019-05-15T07:42:38.500Z,5.00
2019-05-15T07:45:08.316Z,5.10
2019-05-15T07:47:38.312Z,4.30
2019-05-15T07:50:08.871Z,5.17
2019-05-15T07:52:39.842Z,4.60
2019-05-15T07:55:08.735Z,4.50
2019-05-15T07:57:39.333Z,4.08
2019-05-15T08:00:08.342Z,4.50
2019-05-15T08:02:38.005Z,4.72
2019-05-15T08:05:08.353Z,4.40
2019-05-15T08:07:38.711Z,4.20
2019-05-15T08:10:08.709Z,4.85
2019-05-15T08:12:38.919Z,4.58
2019-05-15T08:15:08.859Z,4.65
2019-05-15T08:17:56.020Z,4.47
2019-05-15T08:20:09.024Z,4.75
2019-05-15T08:22:38.345Z,4.53
2019-05-15T08:25:07.622Z,4.47
2019-05-15T08:27:38.077Z,4.90
2019-05-15T08:30:05.640Z,4.28
2019-05-15T08:32:33.175Z,4.80
2019-05-15T08:35:00.650Z,4.97
2019-05-15T08:37:29.328Z,5.10
2019-05-15T08:39:59.523Z,4.30
2019-05-15T08:42:28.087Z,4.55
2019-05-15T08:44:58.362Z,4.65
2019-05-15T08:47:29.839Z,4.90
2019-05-15T08:49:58.718Z,4.12
2019-05-15T08:52:28.271Z,4.30
2019-05-15T08:54:59.106Z,4.00
2019-05-15T08:57:29.483Z,4.87
2019-05-15T08:59:58.802Z,4.35
2019-05-15T09:02:28.778Z,4.47
2019-05-15T09:04:58.578Z,3.85
2019-05-15T09:07:28.752Z,4.40
2019-05-15T09:09:58.533Z,4.10
2019-05-15T09:12:29.474Z,4.30
2019-05-15T09:14:58.647Z,4.22
2019-05-15T09:17:28.566Z,4.70
2019-05-15T09:19:58.988Z,4.62
2019-05-15T09:22:29.134Z,4.05
2019-05-15T09:24:58.956Z,4.72
2019-05-15T09:27:28.803Z,4.08
2019-05-15T09:29:59.207Z,3.92
2019-05-15T09:32:28.468Z,3.55
2019-05-15T09:34:59.247Z,3.62
2019-05-15T09:37:28.653Z,4.42
2019-05-15T09:39:58.253Z,3.70
2019-05-15T09:42:25.316Z,3.52
2019-05-15T09:44:52.882Z,4.25
2019-05-15T09:47:20.382Z,4.05
2019-05-15T09:49:48.454Z,3.52
2019-05-15T09:52:20.138Z,4.12
2019-05-15T09:54:45.765Z,3.87
2019-05-15T09:57:13.273Z,4.20
2019-05-15T09:59:41.049Z,4.40
2019-05-15T10:02:09.267Z,3.87
2019-05-15T10:04:39.086Z,4.30
2019-05-15T10:07:08.238Z,4.62
2019-05-15T10:09:35.853Z,4.42
2019-05-15T10:12:03.610Z,3.92
2019-05-15T10:14:32.305Z,4.60
2019-05-15T10:16:59.875Z,4.72
2019-05-15T10:19:29.097Z,3.83
2019-05-15T10:21:59.262Z,4.03
2019-05-15T10:24:28.070Z,4.03
2019-05-15T10:26:57.945Z,4.33
2019-05-15T10:29:25.379Z,3.70
2019-05-15T10:31:52.964Z,4.12
2019-05-15T10:34:20.510Z,3.95
2019-05-15T10:36:49.578Z,4.05
2019-05-15T10:39:18.217Z,4.30
2019-05-15T10:41:48.104Z,3.87
2019-05-15T10:44:17.995Z,4.12
2019-05-15T10:46:44.815Z,3.70
2019-05-15T10:49:12.409Z,4.45
2019-05-15T10:51:39.975Z,3.98
2019-05-15T10:54:08.498Z,3.98
2019-05-15T10:57:00.422Z,4.35
2019-05-15T10:59:27.599Z,3.67
2019-05-15T11:01:55.027Z,3.85
2019-05-15T11:04:22.616Z,3.47
2019-05-15T11:06:50.057Z,3.50
2019-05-15T11:09:18.595Z,3.90
2019-05-15T11:11:51.157Z,3.70
2019-05-15T11:14:18.300Z,4.08
2019-05-15T11:16:45.358Z,3.30
2019-05-15T11:19:13.042Z,3.47
2019-05-15T11:21:43.403Z,7.42
2019-05-15T11:24:09.966Z,3.15
2019-05-15T11:26:39.093Z,3.83
2019-05-15T11:29:09.554Z,3.40
2019-05-15T11:31:36.243Z,3.77
2019-05-15T11:34:03.816Z,3.37
2019-05-15T11:36:31.552Z,3.50
2019-05-15T11:38:59.162Z,3.65
2019-05-15T11:41:29.228Z,5.10
2019-05-15T11:43:56.151Z,4.00
2019-05-15T11:46:25.808Z,3.60
2019-05-15T11:48:53.019Z,3.80
2019-05-15T11:51:20.673Z,3.58
2019-05-15T11:53:49.210Z,3.87
2019-05-15T11:56:18.856Z,4.22
2019-05-15T11:58:46.566Z,4.28
2019-05-15T12:01:14.369Z,3.83
2019-05-15T12:03:41.959Z,4.00
2019-05-15T12:06:18.553Z,3.85
2019-05-15T12:08:40.148Z,3.95
2019-05-15T12:11:11.932Z,4.58
2019-05-15T12:13:38.179Z,4.83
2019-05-15T12:16:06.057Z,4.10
2019-05-15T12:18:33.758Z,4.30
2019-05-15T12:21:01.344Z,3.87
2019-05-15T12:23:29.479Z,4.70
2019-05-15T12:25:59.758Z,4.55
2019-05-15T12:28:29.618Z,3.60
2019-05-15T12:30:59.681Z,7.58
2019-05-15T12:33:25.446Z,5.50
2019-05-15T12:35:53.169Z,5.53
2019-05-15T12:38:20.652Z,4.47
2019-05-15T13:00:44.330Z,4.47
2019-05-15T13:03:11.880Z,4.33
2019-05-15T13:05:39.567Z,4.10
2019-05-15T13:08:08.351Z,5.67
2019-05-15T13:10:38.483Z,4.60
2019-05-15T13:13:06.531Z,4.70
2019-05-15T13:15:35.188Z,4.17
2019-05-15T13:18:02.810Z,4.25
2019-05-15T13:20:30.356Z,4.33
2019-05-15T13:22:59.322Z,4.35
2019-05-15T13:25:27.976Z,4.55
2019-05-15T13:27:57.917Z,5.25
2019-05-15T13:30:25.280Z,4.20
2019-05-15T13:32:52.960Z,3.50
2019-05-15T13:35:20.506Z,4.33
2019-05-15T13:37:49.705Z,4.47
2019-05-15T13:40:18.689Z,4.60
2019-05-15T13:42:48.593Z,4.28
2019-05-15T13:45:18.301Z,5.08
2019-05-15T13:47:45.925Z,4.92
2019-05-15T13:50:13.564Z,4.58
2019-05-15T13:52:41.174Z,4.50
2019-05-15T13:55:08.846Z,4.47
2019-05-15T13:57:38.382Z,5.28
2019-05-15T14:00:09.413Z,4.60
2019-05-15T14:02:38.787Z,4.70
2019-05-15T14:05:09.556Z,4.22
2019-05-15T14:07:49.057Z,5.42
2019-05-15T14:10:09.396Z,4.70
2019-05-15T14:12:38.329Z,8.43
2019-05-15T14:15:09.036Z,5.25
2019-05-15T14:17:37.699Z,4.40
2019-05-15T14:20:05.644Z,4.40
2019-05-15T14:22:33.317Z,5.28
2019-05-15T14:25:04.017Z,5.50
2019-05-15T14:27:31.816Z,5.17
2019-05-15T14:30:00.353Z,4.45
2019-05-15T14:32:38.115Z,4.42
2019-05-15T14:34:58.530Z,5.33
2019-05-15T14:37:28.575Z,4.28
2019-05-15T14:39:57.932Z,4.03
2019-05-15T14:42:25.364Z,4.53
2019-05-15T14:44:53.135Z,4.53
2019-05-15T14:47:20.650Z,4.42
2019-05-15T14:49:49.637Z,4.45
2019-05-15T14:52:17.948Z,4.17
2019-05-15T14:54:45.820Z,3.80
2019-05-15T14:57:13.391Z,4.08
2019-05-15T14:59:41.186Z,4.40
2019-05-15T15:02:09.173Z,4.12
2019-05-15T15:04:39.217Z,4.40
2019-05-15T15:07:08.730Z,4.50
2019-05-15T15:09:35.989Z,4.05
2019-05-15T15:12:03.879Z,3.70
2019-05-15T15:14:31.599Z,4.20
2019-05-15T15:16:59.101Z,3.98
2019-05-15T15:19:29.145Z,4.00
2019-05-15T15:21:58.020Z,4.35
2019-05-15T15:24:25.793Z,4.17
2019-05-15T15:26:53.773Z,3.95
2019-05-15T15:29:21.374Z,4.30
2019-05-15T15:31:49.638Z,4.30
2019-05-15T15:34:19.620Z,3.87
2019-05-15T15:36:48.425Z,4.10
2019-05-15T15:39:16.447Z,4.50
2019-05-15T15:41:44.129Z,4.15
2019-05-15T15:44:11.751Z,4.00
2019-05-15T15:46:39.658Z,3.98
2019-05-15T15:49:08.763Z,3.90
2019-05-15T15:51:38.033Z,5.22
2019-05-15T15:54:08.314Z,3.75
2019-05-15T15:56:35.284Z,4.40
2019-05-15T15:59:02.766Z,3.98
2019-05-15T16:01:31.461Z,4.65
2019-05-15T16:03:59.224Z,3.72
2019-05-15T16:06:29.199Z,3.98
2019-05-15T16:08:56.284Z,3.80
2019-05-15T16:11:24.195Z,4.03
2019-05-15T16:13:52.072Z,4.25
2019-05-15T16:16:19.776Z,4.12
2019-05-15T16:18:49.176Z,4.15
2019-05-15T16:21:19.136Z,4.12
2019-05-15T16:24:14.830Z,4.33
2019-05-15T16:26:35.478Z,4.33
2019-05-15T16:29:03.666Z,4.40
2019-05-15T16:31:31.320Z,5.05
2019-05-15T16:33:59.107Z,4.10
2019-05-15T16:36:26.711Z,4.30
2019-05-15T16:39:05.220Z,4.42
2019-05-15T16:41:23.853Z,4.17
2019-05-15T16:43:51.518Z,4.15
2019-05-15T16:46:19.369Z,4.00
2019-05-15T16:48:49.302Z,4.50
2019-05-15T16:51:18.013Z,4.33
2019-05-15T16:53:45.765Z,4.08
2019-05-15T16:56:13.530Z,4.30
2019-05-15T16:58:41.214Z,4.00
2019-05-15T17:01:08.808Z,4.67
2019-05-15T17:03:38.025Z,4.40
2019-05-15T17:06:05.805Z,4.28
2019-05-15T17:08:33.923Z,4.10
2019-05-15T17:11:01.536Z,4.08
2019-05-15T17:13:29.100Z,4.17
2019-05-15T17:15:59.114Z,4.35
2019-05-15T17:18:26.683Z,4.47
2019-05-15T17:20:54.542Z,4.50
2019-05-15T17:23:22.239Z,4.85
2019-05-15T17:25:50.884Z,4.37
2019-05-15T17:28:20.676Z,4.17
2019-05-15T17:30:48.885Z,4.97
2019-05-15T17:33:18.474Z,5.97
2019-05-15T17:35:48.538Z,5.58
2019-05-15T17:38:18.144Z,5.17
2019-05-15T17:40:48.570Z,4.60
2019-05-15T17:43:18.214Z,5.25
2019-05-15T17:48:19.364Z,5.30
2019-05-15T17:50:52.239Z,5.20
2019-05-15T17:53:17.991Z,9.65
2019-05-15T17:55:47.933Z,5.87
2019-05-15T17:58:15.899Z,5.60
2019-05-15T18:00:48.630Z,5.35
2019-05-15T18:03:18.950Z,5.45
2019-05-15T18:05:48.282Z,9.75
2019-05-15T18:08:15.426Z,5.97
2019-05-15T18:10:43.156Z,5.75
2019-05-15T18:13:11.031Z,6.65
2019-05-15T18:15:38.754Z,6.28
2019-05-15T18:18:09.589Z,6.20
2019-05-15T18:20:38.130Z,6.45
2019-05-15T18:23:05.338Z,5.65
2019-05-15T18:25:32.941Z,6.12
2019-05-15T18:28:00.603Z,5.50
2019-05-15T18:30:28.728Z,4.62
2019-05-15T18:32:58.791Z,4.47
2019-05-15T18:35:29.071Z,5.40
2019-05-15T18:37:58.885Z,4.70
2019-05-15T18:40:27.772Z,4.95
2019-05-15T18:42:58.956Z,5.20
2019-05-15T18:45:25.639Z,4.50
2019-05-15T18:47:53.713Z,5.28
2019-05-15T18:50:21.392Z,6.75
2019-05-15T18:52:48.997Z,7.10
2019-05-15T18:55:18.431Z,6.72
2019-05-15T18:57:48.486Z,5.70
2019-05-15T19:00:18.399Z,5.80
2019-05-15T19:02:45.934Z,5.87
2019-05-15T19:05:13.837Z,6.03
2019-05-15T19:07:41.426Z,6.30
2019-05-15T19:10:10.040Z,5.80
2019-05-15T19:12:38.815Z,5.47
2019-05-15T19:15:08.979Z,4.83
2019-05-15T19:17:38.580Z,6.20
2019-05-15T19:20:08.368Z,5.92
2019-05-15T19:22:38.620Z,5.67
2019-05-15T19:25:05.710Z,6.20
2019-05-15T19:27:33.294Z,5.83
2019-05-15T19:30:01.061Z,6.20
2019-05-15T19:32:28.557Z,6.20
2019-05-15T19:34:56.260Z,6.83
2019-05-15T19:37:24.607Z,21.40
2019-05-15T19:39:52.741Z,9.60
2019-05-15T19:42:20.553Z,15.38
2019-05-15T19:44:48.570Z,6.03
2019-05-15T19:47:18.559Z,6.45
2019-05-15T19:49:48.364Z,8.85
2019-05-15T19:52:17.873Z,7.30
2019-05-15T19:54:45.748Z,11.00
2019-05-15T19:57:13.409Z,9.55
2019-05-15T19:59:41.126Z,10.63
2019-05-15T20:02:08.925Z,9.70
2019-05-15T20:04:38.551Z,8.00
2019-05-15T20:07:08.040Z,8.08
2019-05-15T20:09:38.373Z,8.78
2019-05-15T20:12:06.281Z,8.05
2019-05-15T20:14:34.142Z,7.22
2019-05-15T20:17:03.119Z,7.78
2019-05-15T20:19:30.924Z,7.62
2019-05-15T20:21:58.624Z,6.80
2019-05-15T20:24:28.570Z,6.12
2019-05-15T20:26:55.663Z,7.20
2019-05-15T20:29:23.570Z,6.50
2019-05-15T20:31:51.940Z,6.33
2019-05-15T20:34:19.757Z,7.10
2019-05-15T20:36:48.811Z,6.55
2019-05-15T20:39:16.608Z,6.80
2019-05-15T20:41:44.388Z,6.62
2019-05-15T20:44:12.065Z,6.92
2019-05-15T20:46:39.952Z,7.03
2019-05-15T20:49:08.570Z,6.87
2019-05-15T20:51:38.451Z,7.15
2019-05-15T20:54:08.015Z,7.00
2019-05-15T20:56:35.599Z,6.47
2019-05-15T20:59:03.272Z,7.15
2019-05-15T21:01:30.926Z,6.67
2019-05-15T21:03:59.539Z,6.85
2019-05-15T21:06:28.358Z,7.25
2019-05-15T21:08:58.052Z,7.10
2019-05-15T21:11:26.034Z,6.78
2019-05-15T21:13:53.936Z,6.92
2019-05-15T21:16:21.609Z,6.85
2019-05-15T21:18:49.283Z,6.92
2019-05-15T21:21:19.213Z,6.83
2019-05-15T21:23:46.540Z,7.22
2019-05-15T21:26:14.507Z,7.65
2019-05-15T21:28:42.104Z,8.55
2019-05-15T21:31:09.877Z,8.83
2019-05-15T21:33:37.394Z,8.00
2019-05-15T21:36:05.139Z,8.65
2019-05-15T21:38:33.113Z,9.10
2019-05-15T21:41:01.065Z,8.95
2019-05-15T21:43:28.755Z,8.83
2019-05-15T21:45:58.640Z,9.93
2019-05-15T21:48:25.916Z,10.70
2019-05-15T21:50:54.934Z,9.75
2019-05-15T21:53:22.710Z,9.98
2019-05-15T21:55:50.851Z,10.20
2019-05-15T21:58:18.884Z,10.10
2019-05-15T22:00:50.146Z,11.03
2019-05-15T22:03:19.788Z,9.85
2019-05-15T22:05:48.798Z,10.23
2019-05-15T22:08:18.348Z,10.15
2019-05-15T22:10:48.212Z,10.10
2019-05-15T22:13:17.252Z,10.08
2019-05-15T22:15:45.524Z,10.38
2019-05-15T22:18:13.782Z,9.98
2019-05-15T22:20:42.062Z,10.70
2019-05-15T22:23:10.027Z,11.05
2019-05-15T22:25:38.526Z,10.70
2019-05-15T22:28:06.461Z,10.65
2019-05-15T22:30:34.360Z,9.98
2019-05-15T22:33:01.977Z,10.68
2019-05-15T22:35:29.792Z,10.85
2019-05-15T22:37:58.468Z,12.00
2019-05-15T22:40:28.657Z,11.97
2019-05-15T22:42:55.909Z,11.97
2019-05-15T22:45:23.770Z,11.50
2019-05-15T22:47:51.354Z,13.05
2019-05-15T22:50:19.176Z,13.32
2019-05-15T22:52:49.222Z,13.10
2019-05-15T22:55:18.273Z,13.10
2019-05-15T22:57:48.154Z,12.95
2019-05-15T23:00:17.706Z,13.75
2019-05-15T23:02:45.766Z,12.50
2019-05-15T23:05:23.826Z,13.65
2019-05-15T23:07:42.801Z,13.05
2019-05-15T23:10:10.481Z,14.25
2019-05-15T23:12:38.368Z,14.60
2019-05-15T23:15:08.636Z,15.10
2019-05-15T23:17:38.134Z,13.80
2019-05-15T23:20:08.695Z,14.13
2019-05-15T23:22:38.332Z,14.58
2019-05-15T23:25:05.736Z,15.03
2019-05-15T23:27:33.208Z,15.23
2019-05-15T23:30:00.969Z,13.88
2019-05-15T23:32:29.632Z,14.33
2019-05-15T23:34:58.435Z,14.05
2019-05-15T23:37:28.039Z,13.45
2019-05-15T23:39:57.842Z,14.13
2019-05-15T23:42:25.154Z,14.43
2019-05-15T23:44:52.670Z,15.15
2019-05-15T23:47:20.234Z,14.93
2019-05-15T23:49:48.530Z,14.15
2019-05-15T23:52:16.175Z,14.13
2019-05-15T23:54:43.741Z,13.80
2019-05-15T23:57:11.274Z,14.33
2019-05-15T23:59:38.746Z,14.25
